Time;durP1;ratioP1;P1;durP2;ratioP2;P2;SDS_P1;SDS_P2;PMS_P1;PMS_P2;Temp;Humidity;BMP_temperature;BMP_pressure;BME280_temperature;BME280_humidity;BME280_pressure;Samples;Min_cycle;Max_cycle;Signal;HPM_P1;HPM_P2
2023/10/29 00:00:22;;;;;;;5.97;4.18;;;;;;;;;;5051371;28;20079;-63
2023/10/29 00:02:48;;;;;;;5.80;4.18;;;;;;;;;;5051224;28;20452;-63
2023/10/29 00:05:14;;;;;;;7.97;4.35;;;;;;;;;;5051293;28;20067;-63
2023/10/29 00:07:40;;;;;;;4.60;3.70;;;;;;;;;;5051395;28;20091;-63
2023/10/29 00:10:07;;;;;;;8.77;4.55;;;;;;;;;;5050877;28;20052;-63
2023/10/29 00:12:33;;;;;;;5.65;4.40;;;;;;;;;;5051040;28;20047;-63
2023/10/29 00:14:59;;;;;;;7.85;4.30;;;;;;;;;;5051418;28;20252;-63
2023/10/29 00:17:25;;;;;;;8.45;4.47;;;;;;;;;;5050822;28;20456;-63
2023/10/29 00:19:52;;;;;;;9.65;4.82;;;;;;;;;;5050724;28;20037;-63
2023/10/29 00:22:18;;;;;;;7.38;4.22;;;;;;;;;;5049782;28;20138;-63
2023/10/29 00:24:44;;;;;;;9.45;4.63;;;;;;;;;;5051181;28;20453;-63
2023/10/29 00:27:10;;;;;;;6.70;4.38;;;;;;;;;;5050418;28;20091;-63
2023/10/29 00:29:37;;;;;;;6.00;4.90;;;;;;;;;;5050987;28;20525;-63
2023/10/29 00:32:03;;;;;;;7.28;4.68;;;;;;;;;;5050748;28;20044;-63
2023/10/29 00:34:29;;;;;;;9.70;4.60;;;;;;;;;;5050204;28;20071;-63
2023/10/29 00:36:55;;;;;;;6.28;4.30;;;;;;;;;;5050522;28;20056;-63
2023/10/29 00:39:21;;;;;;;7.95;4.55;;;;;;;;;;5050662;28;20054;-63
2023/10/29 00:41:47;;;;;;;6.65;4.40;;;;;;;;;;5050210;28;20060;-64
2023/10/29 00:44:12;;;;;;;8.82;4.40;;;;;;;;;;5050306;28;20041;-64
2023/10/29 00:46:40;;;;;;;5.35;4.38;;;;;;;;;;5050461;28;20041;-64
2023/10/29 00:49:06;;;;;;;9.45;4.72;;;;;;;;;;5050037;28;20045;-64
2023/10/29 00:51:32;;;;;;;8.93;4.80;;;;;;;;;;5050636;28;20502;-64
2023/10/29 00:53:58;;;;;;;5.07;4.30;;;;;;;;;;5050060;28;20118;-64
2023/10/29 00:56:24;;;;;;;7.22;4.53;;;;;;;;;;5049795;28;20045;-64
2023/10/29 00:58:54;;;;;;;6.63;4.38;;;;;;;;;;5050340;28;20045;-64
2023/10/29 01:01:21;;;;;;;7.22;4.80;;;;;;;;;;5050255;28;20134;-64
2023/10/29 01:03:47;;;;;;;9.07;4.18;;;;;;;;;;5049927;28;20191;-64
2023/10/29 01:06:13;;;;;;;5.70;4.57;;;;;;;;;;5050086;28;20045;-64
2023/10/29 01:08:39;;;;;;;10.07;4.95;;;;;;;;;;5049778;28;20041;-64
2023/10/29 01:11:07;;;;;;;9.85;5.15;;;;;;;;;;5049899;28;20036;-64
2023/10/29 01:13:33;;;;;;;11.05;5.38;;;;;;;;;;5049994;28;20090;-64
2023/10/29 01:15:59;;;;;;;7.55;5.57;;;;;;;;;;5049855;28;20051;-64
2023/10/29 01:18:25;;;;;;;8.70;5.53;;;;;;;;;;5049589;28;20037;-64
2023/10/29 01:20:51;;;;;;;6.85;5.28;;;;;;;;;;5049632;28;20037;-64
2023/10/29 01:23:17;;;;;;;10.10;5.47;;;;;;;;;;5049951;28;20394;-64
2023/10/29 01:25:44;;;;;;;10.43;5.93;;;;;;;;;;5049318;28;20033;-64
2023/10/29 01:28:10;;;;;;;7.30;5.82;;;;;;;;;;5031911;28;20041;-64
2023/10/29 01:30:36;;;;;;;7.95;5.85;;;;;;;;;;5049970;28;20037;-64
2023/10/29 01:33:02;;;;;;;8.45;5.90;;;;;;;;;;5031222;28;20399;-64
2023/10/29 01:35:28;;;;;;;8.68;6.30;;;;;;;;;;5049859;28;20040;-64
2023/10/29 01:37:54;;;;;;;9.82;6.60;;;;;;;;;;5049426;28;20102;-64
2023/10/29 01:40:20;;;;;;;11.85;7.32;;;;;;;;;;5049067;28;20644;-64
2023/10/29 01:42:48;;;;;;;12.55;6.97;;;;;;;;;;5049856;28;20120;-64
2023/10/29 01:45:16;;;;;;;12.65;6.53;;;;;;;;;;5049497;28;20561;-64
2023/10/29 01:47:42;;;;;;;11.00;6.43;;;;;;;;;;5031003;28;20049;-64
2023/10/29 01:50:09;;;;;;;8.00;5.95;;;;;;;;;;5049632;28;20037;-64
2023/10/29 01:52:38;;;;;;;14.68;6.25;;;;;;;;;;5049058;28;20049;-64
2023/10/29 01:55:05;;;;;;;10.27;5.40;;;;;;;;;;5048940;28;20057;-64
2023/10/29 01:57:38;;;;;;;13.27;5.55;;;;;;;;;;5049348;28;20470;-64
2023/10/29 02:00:05;;;;;;;12.15;4.88;;;;;;;;;;5049262;28;20067;-64
2023/10/29 02:02:32;;;;;;;10.48;4.90;;;;;;;;;;5049141;28;20480;-64
2023/10/29 02:04:58;;;;;;;7.20;4.55;;;;;;;;;;5049204;28;20091;-64
2023/10/29 02:07:24;;;;;;;6.85;4.00;;;;;;;;;;5049520;28;20051;-64
2023/10/29 02:09:51;;;;;;;8.85;3.90;;;;;;;;;;5049296;28;20068;-64
2023/10/29 02:12:17;;;;;;;8.40;4.25;;;;;;;;;;5048870;28;20049;-64
2023/10/29 02:14:43;;;;;;;12.18;4.38;;;;;;;;;;5049064;28;20041;-64
2023/10/29 02:17:09;;;;;;;8.88;4.03;;;;;;;;;;5048761;28;20230;-64
2023/10/29 02:19:35;;;;;;;5.90;4.05;;;;;;;;;;5049110;28;20094;-64
2023/10/29 02:22:01;;;;;;;9.90;4.03;;;;;;;;;;5049262;28;20049;-64
2023/10/29 02:24:27;;;;;;;7.22;4.38;;;;;;;;;;5048874;28;20068;-64
2023/10/29 02:26:53;;;;;;;8.18;4.38;;;;;;;;;;5049043;28;20083;-64
2023/10/29 02:29:19;;;;;;;5.45;3.53;;;;;;;;;;5049020;28;20480;-64
2023/10/29 02:31:45;;;;;;;6.32;3.40;;;;;;;;;;5048866;28;20156;-64
2023/10/29 02:34:12;;;;;;;8.82;3.85;;;;;;;;;;5048900;28;20497;-64
2023/10/29 02:36:38;;;;;;;5.47;3.58;;;;;;;;;;5048695;28;20045;-64
2023/10/29 02:39:04;;;;;;;4.93;3.55;;;;;;;;;;5048765;28;20414;-64
2023/10/29 02:41:31;;;;;;;5.32;3.45;;;;;;;;;;5048842;28;20577;-64
2023/10/29 02:43:58;;;;;;;6.88;3.25;;;;;;;;;;5049198;28;20514;-64
2023/10/29 02:46:24;;;;;;;6.75;3.08;;;;;;;;;;5033540;28;20041;-64
2023/10/29 02:48:50;;;;;;;6.03;2.97;;;;;;;;;;5052748;28;20081;-64
2023/10/29 02:51:16;;;;;;;5.88;3.10;;;;;;;;;;5052802;28;20483;-64
2023/10/29 02:53:42;;;;;;;7.25;2.70;;;;;;;;;;5051880;28;20064;-64
2023/10/29 02:56:08;;;;;;;4.15;2.58;;;;;;;;;;5052643;28;20130;-64
2023/10/29 02:58:35;;;;;;;11.35;3.08;;;;;;;;;;5052360;28;20064;-64
2023/10/29 03:01:08;;;;;;;7.10;2.70;;;;;;;;;;5033812;28;20066;-64
2023/10/29 03:03:34;;;;;;;4.97;2.72;;;;;;;;;;5034367;28;20049;-64
2023/10/29 03:06:08;;;;;;;6.25;2.63;;;;;;;;;;5052275;28;20418;-64
2023/10/29 03:08:34;;;;;;;6.00;2.38;;;;;;;;;;5052066;28;20044;-64
2023/10/29 03:11:00;;;;;;;7.95;2.63;;;;;;;;;;5034521;28;20052;-64
2023/10/29 03:13:26;;;;;;;6.65;2.75;;;;;;;;;;5051902;28;20471;-64
2023/10/29 03:15:52;;;;;;;6.57;2.65;;;;;;;;;;5051934;28;20037;-64
2023/10/29 03:18:18;;;;;;;3.80;2.40;;;;;;;;;;5051777;28;20443;-64
2023/10/29 03:20:44;;;;;;;4.40;2.80;;;;;;;;;;5051967;28;20124;-64
2023/10/29 03:23:10;;;;;;;6.30;2.75;;;;;;;;;;5051847;28;20290;-64
2023/10/29 03:25:36;;;;;;;8.68;2.40;;;;;;;;;;5051556;28;20037;-64
2023/10/29 03:28:02;;;;;;;5.57;2.60;;;;;;;;;;5034331;28;20043;-64
2023/10/29 03:30:28;;;;;;;4.13;2.40;;;;;;;;;;5051528;28;20076;-64
2023/10/29 03:32:54;;;;;;;6.95;2.58;;;;;;;;;;5051923;28;20072;-64
2023/10/29 03:35:20;;;;;;;6.07;2.10;;;;;;;;;;5051580;28;20129;-64
2023/10/29 03:37:46;;;;;;;4.40;2.10;;;;;;;;;;5051319;28;20116;-64
2023/10/29 03:40:12;;;;;;;6.30;1.88;;;;;;;;;;5033612;28;20128;-64
2023/10/29 03:42:38;;;;;;;4.15;2.20;;;;;;;;;;5051902;28;20459;-64
2023/10/29 03:45:04;;;;;;;4.20;1.80;;;;;;;;;;5051461;28;20079;-64
2023/10/29 03:47:31;;;;;;;4.32;1.90;;;;;;;;;;5051550;28;20048;-64
2023/10/29 03:49:57;;;;;;;4.30;1.70;;;;;;;;;;5051597;28;20447;-64
2023/10/29 03:52:23;;;;;;;4.40;1.90;;;;;;;;;;5051379;28;20099;-64
2023/10/29 03:54:49;;;;;;;3.38;1.85;;;;;;;;;;5051015;28;20053;-64
2023/10/29 03:57:15;;;;;;;5.60;1.88;;;;;;;;;;5051107;28;20471;-64
2023/10/29 03:59:41;;;;;;;4.72;1.80;;;;;;;;;;5051040;28;20472;-64
2023/10/29 04:02:07;;;;;;;3.90;1.80;;;;;;;;;;5051257;28;20040;-64
2023/10/29 04:04:33;;;;;;;2.63;1.70;;;;;;;;;;5051145;28;20044;-64
2023/10/29 04:07:00;;;;;;;2.88;1.70;;;;;;;;;;5050975;28;20243;-64
2023/10/29 04:09:26;;;;;;;6.35;1.83;;;;;;;;;;5051227;28;20036;-64
2023/10/29 04:11:52;;;;;;;5.05;1.70;;;;;;;;;;5051386;28;20380;-64
2023/10/29 04:14:18;;;;;;;5.18;1.60;;;;;;;;;;5032990;28;20048;-64
2023/10/29 04:16:44;;;;;;;5.22;1.98;;;;;;;;;;5050472;28;20195;-64
2023/10/29 04:19:10;;;;;;;4.80;1.55;;;;;;;;;;5050881;28;20052;-64
2023/10/29 04:21:36;;;;;;;3.05;1.90;;;;;;;;;;5050839;28;20059;-64
2023/10/29 04:24:03;;;;;;;4.63;1.60;;;;;;;;;;5050421;28;20060;-64
2023/10/29 04:26:29;;;;;;;3.65;1.48;;;;;;;;;;5050632;28;20041;-64
2023/10/29 04:28:55;;;;;;;5.68;1.40;;;;;;;;;;5051023;28;20111;-64
2023/10/29 04:31:21;;;;;;;4.53;1.88;;;;;;;;;;5050551;28;20080;-64
2023/10/29 04:33:48;;;;;;;3.97;1.80;;;;;;;;;;5050789;28;20045;-64
2023/10/29 04:36:23;;;;;;;3.78;1.40;;;;;;;;;;5050735;28;20123;-64
2023/10/29 04:38:50;;;;;;;4.30;1.42;;;;;;;;;;5050232;28;20041;-64
2023/10/29 04:41:16;;;;;;;1.20;1.10;;;;;;;;;;5050435;28;20037;-64
2023/10/29 04:43:42;;;;;;;4.65;1.40;;;;;;;;;;5050697;28;20053;-64
2023/10/29 04:46:11;;;;;;;3.85;1.40;;;;;;;;;;5050056;28;20041;-64
2023/10/29 04:48:37;;;;;;;2.63;1.10;;;;;;;;;;5050593;28;20787;-64
2023/10/29 04:51:07;;;;;;;2.80;0.90;;;;;;;;;;5050144;28;20291;-64
2023/10/29 04:53:34;;;;;;;0.68;0.52;;;;;;;;;;5049423;28;20490;-64
2023/10/29 04:56:00;;;;;;;3.00;0.82;;;;;;;;;;5050453;28;20057;-64
2023/10/29 04:58:26;;;;;;;2.75;0.70;;;;;;;;;;5050288;28;20037;-64
2023/10/29 05:00:52;;;;;;;4.97;0.70;;;;;;;;;;5050070;28;20033;-64
2023/10/29 05:03:18;;;;;;;2.10;0.70;;;;;;;;;;5050272;28;20124;-64
2023/10/29 05:05:44;;;;;;;2.33;0.90;;;;;;;;;;5049697;28;20116;-64
2023/10/29 05:08:10;;;;;;;3.53;1.20;;;;;;;;;;5049293;28;20036;-64
2023/10/29 05:10:36;;;;;;;3.85;1.27;;;;;;;;;;5049859;28;20045;-64
2023/10/29 05:13:02;;;;;;;3.22;1.00;;;;;;;;;;5050003;28;20478;-64
2023/10/29 05:15:29;;;;;;;2.28;1.02;;;;;;;;;;5049289;28;20444;-64
2023/10/29 05:17:55;;;;;;;2.50;0.93;;;;;;;;;;5049468;28;20048;-64
2023/10/29 05:20:21;;;;;;;3.00;1.23;;;;;;;;;;5050135;28;20040;-64
2023/10/29 05:22:47;;;;;;;4.90;1.23;;;;;;;;;;5049489;28;20080;-64
2023/10/29 05:25:13;;;;;;;2.70;1.00;;;;;;;;;;5049777;28;20086;-64
2023/10/29 05:27:39;;;;;;;5.25;1.00;;;;;;;;;;5049633;28;20432;-64
2023/10/29 05:30:06;;;;;;;2.00;0.80;;;;;;;;;;5049134;28;20075;-64
2023/10/29 05:32:33;;;;;;;4.95;1.23;;;;;;;;;;5049809;28;20037;-64
2023/10/29 05:34:59;;;;;;;4.60;0.88;;;;;;;;;;5049763;28;20576;-64
2023/10/29 05:37:25;;;;;;;3.00;0.98;;;;;;;;;;5049008;28;20037;-64
2023/10/29 05:39:54;;;;;;;6.95;0.90;;;;;;;;;;5049831;28;20040;-64
2023/10/29 05:42:20;;;;;;;4.20;1.10;;;;;;;;;;5049629;28;20087;-64
2023/10/29 05:44:46;;;;;;;2.95;0.80;;;;;;;;;;5049530;28;20138;-64
2023/10/29 05:47:12;;;;;;;4.00;0.90;;;;;;;;;;5031307;28;20044;-64
2023/10/29 05:49:38;;;;;;;3.45;0.85;;;;;;;;;;5049540;28;20513;-64
2023/10/29 05:52:04;;;;;;;3.40;0.85;;;;;;;;;;5031332;28;20052;-64
2023/10/29 05:54:30;;;;;;;3.17;1.00;;;;;;;;;;5048937;28;20087;-64
2023/10/29 05:56:56;;;;;;;3.85;0.90;;;;;;;;;;5049523;28;20048;-64
2023/10/29 05:59:23;;;;;;;1.35;0.80;;;;;;;;;;5049249;28;20029;-64
2023/10/29 06:01:49;;;;;;;2.53;1.10;;;;;;;;;;5031877;28;20391;-64
2023/10/29 06:04:15;;;;;;;1.90;0.70;;;;;;;;;;5049568;28;20044;-64
2023/10/29 06:06:41;;;;;;;4.25;0.70;;;;;;;;;;5048680;28;20514;-64
2023/10/29 06:09:07;;;;;;;2.15;0.65;;;;;;;;;;5049295;28;20041;-64
2023/10/29 06:11:33;;;;;;;5.75;1.00;;;;;;;;;;5049633;28;20132;-64
2023/10/29 06:14:01;;;;;;;4.18;0.80;;;;;;;;;;5048994;28;20299;-64
2023/10/29 06:16:27;;;;;;;2.97;1.00;;;;;;;;;;5049376;28;20045;-64
2023/10/29 06:18:53;;;;;;;2.70;0.82;;;;;;;;;;5048998;28;20086;-64
2023/10/29 06:21:22;;;;;;;5.25;1.25;;;;;;;;;;5051612;28;20953;-64
2023/10/29 06:23:49;;;;;;;4.90;0.98;;;;;;;;;;5053424;28;20037;-64
2023/10/29 06:26:15;;;;;;;1.77;0.80;;;;;;;;;;5052989;28;20141;-64
2023/10/29 06:28:41;;;;;;;2.97;0.63;;;;;;;;;;5052567;28;20060;-64
2023/10/29 06:31:07;;;;;;;1.55;0.65;;;;;;;;;;5053100;28;20048;-64
2023/10/29 06:33:36;;;;;;;1.20;0.60;;;;;;;;;;5052870;28;20048;-64
2023/10/29 06:36:02;;;;;;;5.90;0.90;;;;;;;;;;5034728;28;20037;-64
2023/10/29 06:38:28;;;;;;;2.65;0.68;;;;;;;;;;5053026;28;20124;-64
2023/10/29 06:40:54;;;;;;;2.78;0.70;;;;;;;;;;5052948;28;20503;-64
2023/10/29 06:43:20;;;;;;;3.72;0.88;;;;;;;;;;5052471;28;20045;-64
2023/10/29 06:45:46;;;;;;;4.75;1.15;;;;;;;;;;5052987;28;20067;-64
2023/10/29 06:48:12;;;;;;;3.85;1.00;;;;;;;;;;5052898;28;20076;-64
2023/10/29 06:50:40;;;;;;;0.95;0.70;;;;;;;;;;5052448;28;20517;-64
2023/10/29 06:53:07;;;;;;;2.80;1.00;;;;;;;;;;5052513;28;20041;-64
2023/10/29 06:55:33;;;;;;;2.42;0.60;;;;;;;;;;5052784;28;20044;-64
2023/10/29 06:57:59;;;;;;;3.58;0.80;;;;;;;;;;5052136;28;20041;-64
2023/10/29 07:00:25;;;;;;;2.90;0.90;;;;;;;;;;5052711;28;20044;-64
2023/10/29 07:02:51;;;;;;;1.85;0.80;;;;;;;;;;5052586;28;20123;-64
2023/10/29 07:05:17;;;;;;;4.63;0.63;;;;;;;;;;5051974;28;20044;-64
2023/10/29 07:07:43;;;;;;;3.92;0.75;;;;;;;;;;5052491;28;20396;-64
2023/10/29 07:10:09;;;;;;;1.30;0.70;;;;;;;;;;5052206;28;20045;-64
2023/10/29 07:12:35;;;;;;;3.83;0.50;;;;;;;;;;5052173;28;20091;-64
2023/10/29 07:15:01;;;;;;;2.67;0.70;;;;;;;;;;5051833;28;20045;-64
2023/10/29 07:17:27;;;;;;;5.88;1.90;;;;;;;;;;5052123;28;20025;-64
2023/10/29 07:19:53;;;;;;;2.45;0.80;;;;;;;;;;5051869;28;20549;-64
2023/10/29 07:22:19;;;;;;;4.20;1.00;;;;;;;;;;5051979;28;20036;-64
2023/10/29 07:24:45;;;;;;;1.90;0.82;;;;;;;;;;5052221;28;20116;-64
2023/10/29 07:27:11;;;;;;;4.90;0.70;;;;;;;;;;5051243;28;20243;-64
2023/10/29 07:29:37;;;;;;;3.63;0.63;;;;;;;;;;5051945;28;20399;-64
2023/10/29 07:32:03;;;;;;;3.97;0.98;;;;;;;;;;5051559;28;20041;-64
2023/10/29 07:34:29;;;;;;;2.38;0.68;;;;;;;;;;5051471;28;20045;-64
2023/10/29 07:36:55;;;;;;;2.20;0.52;;;;;;;;;;5051895;28;20125;-64
2023/10/29 07:39:21;;;;;;;4.85;0.73;;;;;;;;;;5051375;28;20045;-64
2023/10/29 07:41:47;;;;;;;4.68;0.68;;;;;;;;;;5051351;28;20041;-64
2023/10/29 07:44:13;;;;;;;3.00;0.82;;;;;;;;;;5051800;28;20052;-64
2023/10/29 07:46:39;;;;;;;3.38;0.77;;;;;;;;;;5051493;28;20463;-64
2023/10/29 07:49:05;;;;;;;4.97;0.90;;;;;;;;;;5051267;28;20045;-64
2023/10/29 07:51:31;;;;;;;4.50;1.10;;;;;;;;;;5051459;28;20040;-64
2023/10/29 07:53:57;;;;;;;4.35;0.90;;;;;;;;;;5051025;28;20048;-64
2023/10/29 07:56:23;;;;;;;2.88;0.70;;;;;;;;;;5051056;28;20510;-64
2023/10/29 07:58:49;;;;;;;5.07;0.90;;;;;;;;;;5051267;28;20170;-64
2023/10/29 08:01:16;;;;;;;2.38;0.70;;;;;;;;;;5051230;28;20037;-64
2023/10/29 08:03:42;;;;;;;6.28;0.82;;;;;;;;;;5050706;28;20044;-64
2023/10/29 08:06:09;;;;;;;3.75;0.80;;;;;;;;;;5050650;28;20037;-64
2023/10/29 08:08:35;;;;;;;6.35;0.80;;;;;;;;;;5051362;28;20041;-64
2023/10/29 08:11:01;;;;;;;5.32;1.17;;;;;;;;;;5051111;28;20099;-64
2023/10/29 08:13:27;;;;;;;8.25;0.88;;;;;;;;;;5050858;28;20044;-64
2023/10/29 08:15:54;;;;;;;3.65;0.77;;;;;;;;;;5051294;28;20036;-64
2023/10/29 08:18:20;;;;;;;4.05;0.80;;;;;;;;;;5051227;28;20044;-64
2023/10/29 08:20:46;;;;;;;6.78;1.00;;;;;;;;;;5050447;28;20040;-64
2023/10/29 08:23:12;;;;;;;4.40;1.35;;;;;;;;;;5050646;28;20095;-64
2023/10/29 08:25:38;;;;;;;3.60;0.85;;;;;;;;;;5050813;28;20260;-64
2023/10/29 08:28:08;;;;;;;2.03;0.60;;;;;;;;;;5050516;28;20047;-64
2023/10/29 08:30:34;;;;;;;3.35;1.00;;;;;;;;;;5050787;28;20534;-64
2023/10/29 08:33:00;;;;;;;6.18;1.00;;;;;;;;;;5051065;28;20071;-64
2023/10/29 08:35:26;;;;;;;5.95;0.90;;;;;;;;;;5032117;28;20102;-64
2023/10/29 08:37:52;;;;;;;5.20;0.95;;;;;;;;;;5050446;28;20041;-64
2023/10/29 08:40:18;;;;;;;3.75;0.80;;;;;;;;;;5050580;28;20040;-64
2023/10/29 08:42:44;;;;;;;7.65;1.08;;;;;;;;;;5049168;28;20041;-64
2023/10/29 08:45:12;;;;;;;3.55;1.05;;;;;;;;;;5050764;28;20241;-64
2023/10/29 08:47:38;;;;;;;3.58;0.93;;;;;;;;;;5050634;28;20394;-64
2023/10/29 08:50:05;;;;;;;5.30;0.70;;;;;;;;;;5032562;28;20071;-64
2023/10/29 08:52:31;;;;;;;5.65;1.13;;;;;;;;;;5050402;28;20094;-64
2023/10/29 08:54:57;;;;;;;6.85;0.90;;;;;;;;;;5049822;28;20136;-64
2023/10/29 08:57:23;;;;;;;4.72;0.73;;;;;;;;;;5049865;28;20380;-64
2023/10/29 08:59:50;;;;;;;6.18;0.80;;;;;;;;;;5050063;28;20047;-64
2023/10/29 09:02:15;;;;;;;4.47;0.63;;;;;;;;;;5032258;28;20365;-64
2023/10/29 09:04:42;;;;;;;5.22;0.77;;;;;;;;;;5049917;28;20043;-64
2023/10/29 09:07:08;;;;;;;4.75;0.80;;;;;;;;;;5050065;28;20048;-64
2023/10/29 09:09:36;;;;;;;4.85;1.02;;;;;;;;;;5050382;28;20071;-64
2023/10/29 09:12:02;;;;;;;5.60;1.00;;;;;;;;;;5045622;28;20041;-64
2023/10/29 09:14:28;;;;;;;4.65;1.00;;;;;;;;;;5049938;28;20080;-64
2023/10/29 09:16:54;;;;;;;7.78;1.42;;;;;;;;;;5049919;28;20503;-64
2023/10/29 09:19:20;;;;;;;5.32;1.10;;;;;;;;;;5031327;28;20053;-64
2023/10/29 09:21:46;;;;;;;5.18;1.00;;;;;;;;;;5049781;28;20143;-64
2023/10/29 09:24:12;;;;;;;7.53;1.60;;;;;;;;;;5049955;28;20596;-64
2023/10/29 09:26:38;;;;;;;5.65;1.05;;;;;;;;;;5048942;28;20045;-64
2023/10/29 09:29:04;;;;;;;7.10;1.20;;;;;;;;;;5032114;28;20048;-64
2023/10/29 09:31:30;;;;;;;5.00;1.40;;;;;;;;;;5049599;28;20500;-64
2023/10/29 09:33:56;;;;;;;6.00;1.30;;;;;;;;;;5049225;28;20041;-64
2023/10/29 09:36:22;;;;;;;3.60;1.10;;;;;;;;;;5049353;28;20044;-64
2023/10/29 09:38:49;;;;;;;10.40;1.10;;;;;;;;;;5049464;28;20037;-64
2023/10/29 09:41:18;;;;;;;5.38;1.20;;;;;;;;;;5049236;28;20124;-64
2023/10/29 09:43:44;;;;;;;8.07;1.23;;;;;;;;;;5049422;28;20044;-64
2023/10/29 09:46:11;;;;;;;4.10;1.10;;;;;;;;;;5049506;28;20037;-64
2023/10/29 09:48:37;;;;;;;8.25;1.17;;;;;;;;;;5049251;28;20041;-64
2023/10/29 09:51:07;;;;;;;7.45;1.38;;;;;;;;;;5049182;28;20041;-64
2023/10/29 09:53:37;;;;;;;4.72;1.33;;;;;;;;;;5049130;28;20056;-64
2023/10/29 09:56:05;;;;;;;6.68;1.70;;;;;;;;;;5048660;28;20052;-64
2023/10/29 09:58:31;;;;;;;7.80;1.50;;;;;;;;;;5049455;28;20029;-64
2023/10/29 10:00:58;;;;;;;8.27;1.67;;;;;;;;;;5049418;28;20040;-64
2023/10/29 10:03:27;;;;;;;7.30;1.45;;;;;;;;;;5048730;28;20585;-64
2023/10/29 10:05:53;;;;;;;4.65;1.10;;;;;;;;;;5049114;28;20037;-64
2023/10/29 10:08:29;;;;;;;8.88;1.75;;;;;;;;;;5049494;28;20114;-64
2023/10/29 10:10:59;;;;;;;10.13;1.80;;;;;;;;;;5048950;28;20095;-64
2023/10/29 10:13:51;;;;;;;8.73;1.60;;;;;;;;;;5049332;28;20049;-64
2023/10/29 10:16:19;;;;;;;11.13;1.48;;;;;;;;;;5045469;28;20133;-64
2023/10/29 10:18:48;;;;;;;7.72;1.40;;;;;;;;;;5048619;28;20040;-64
2023/10/29 10:21:15;;;;;;;6.45;1.50;;;;;;;;;;5066609;28;20055;-64
2023/10/29 10:23:47;;;;;;;6.82;1.67;;;;;;;;;;5053779;28;20338;-64
2023/10/29 10:26:14;;;;;;;9.02;1.83;;;;;;;;;;5048477;28;20495;-64
2023/10/29 10:28:56;;;;;;;7.90;1.88;;;;;;;;;;5049302;28;20037;-64
2023/10/29 10:31:22;;;;;;;10.30;2.00;;;;;;;;;;5049079;28;20059;-64
2023/10/29 10:33:49;;;;;;;8.07;1.35;;;;;;;;;;5048862;28;20040;-64
2023/10/29 10:36:16;;;;;;;4.85;1.50;;;;;;;;;;5048771;28;20052;-64
2023/10/29 10:38:51;;;;;;;8.73;1.42;;;;;;;;;;5049016;28;20041;-64
2023/10/29 10:41:17;;;;;;;9.18;1.85;;;;;;;;;;5048721;28;20029;-64
2023/10/29 10:43:44;;;;;;;7.80;1.48;;;;;;;;;;5049017;28;20114;-64
2023/10/29 10:46:13;;;;;;;4.88;1.25;;;;;;;;;;5048806;28;20411;-64
2023/10/29 10:48:41;;;;;;;6.75;1.40;;;;;;;;;;5048456;28;20119;-64
2023/10/29 10:51:13;;;;;;;4.80;1.30;;;;;;;;;;5048780;28;20060;-64
2023/10/29 10:53:39;;;;;;;7.97;1.40;;;;;;;;;;5048792;28;20414;-64
2023/10/29 10:56:08;;;;;;;8.05;1.25;;;;;;;;;;5048343;28;20045;-64
2023/10/29 10:58:34;;;;;;;6.72;1.42;;;;;;;;;;5048603;28;20057;-64
2023/10/29 11:01:01;;;;;;;5.10;1.58;;;;;;;;;;5048893;28;20227;-64
2023/10/29 11:03:30;;;;;;;7.22;1.52;;;;;;;;;;5048424;28;20041;-64
2023/10/29 11:05:56;;;;;;;6.18;1.52;;;;;;;;;;5049316;28;20045;-64
2023/10/29 11:08:23;;;;;;;10.13;2.45;;;;;;;;;;5052289;28;20044;-64
2023/10/29 11:10:49;;;;;;;5.75;1.52;;;;;;;;;;5051892;28;20075;-64
2023/10/29 11:13:20;;;;;;;8.63;1.80;;;;;;;;;;5052205;28;20041;-64
2023/10/29 11:15:52;;;;;;;8.85;1.80;;;;;;;;;;5052005;28;20094;-64
2023/10/29 11:18:31;;;;;;;7.03;1.60;;;;;;;;;;5051569;28;20044;-64
2023/10/29 11:21:03;;;;;;;10.48;1.88;;;;;;;;;;5051978;28;20045;-64
2023/10/29 11:23:30;;;;;;;9.95;2.10;;;;;;;;;;5051852;28;20052;-64
2023/10/29 11:26:14;;;;;;;7.13;1.40;;;;;;;;;;5051530;28;20048;-64
2023/10/29 11:28:45;;;;;;;8.00;1.38;;;;;;;;;;5032265;28;20033;-64
2023/10/29 11:31:11;;;;;;;6.50;1.35;;;;;;;;;;5040784;28;20044;-64
2023/10/29 11:33:37;;;;;;;8.55;1.52;;;;;;;;;;5052275;28;20286;-64
2023/10/29 11:36:22;;;;;;;5.40;1.25;;;;;;;;;;5051678;28;20045;-64
2023/10/29 11:38:48;;;;;;;7.95;1.48;;;;;;;;;;5051486;28;20041;-64
2023/10/29 11:41:36;;;;;;;6.60;1.30;;;;;;;;;;5051827;28;20044;-64
2023/10/29 11:44:20;;;;;;;7.97;1.75;;;;;;;;;;5051352;28;20079;-64
2023/10/29 11:46:58;;;;;;;6.20;1.20;;;;;;;;;;5050845;28;20081;-64
2023/10/29 11:49:27;;;;;;;4.80;1.67;;;;;;;;;;5051460;28;20128;-64
2023/10/29 11:51:59;;;;;;;5.75;1.27;;;;;;;;;;5051469;28;20110;-64
2023/10/29 11:54:25;;;;;;;11.30;1.42;;;;;;;;;;5050815;28;20092;-64
2023/10/29 11:56:52;;;;;;;7.75;1.08;;;;;;;;;;5051555;28;20130;-64
2023/10/29 11:59:18;;;;;;;9.43;1.40;;;;;;;;;;5051374;28;20086;-64
2023/10/29 12:01:44;;;;;;;6.13;1.38;;;;;;;;;;5051160;28;20064;-64
2023/10/29 12:04:12;;;;;;;9.50;1.60;;;;;;;;;;5051360;28;20040;-64
2023/10/29 12:06:48;;;;;;;8.35;1.17;;;;;;;;;;5033395;28;20056;-64
2023/10/29 12:09:17;;;;;;;11.30;1.60;;;;;;;;;;5051119;28;20041;-64
2023/10/29 12:11:43;;;;;;;7.15;1.67;;;;;;;;;;5051180;28;20049;-64
2023/10/29 12:14:10;;;;;;;5.60;1.23;;;;;;;;;;5051235;28;20070;-64
2023/10/29 12:16:36;;;;;;;9.05;1.58;;;;;;;;;;5050136;28;20037;-64
2023/10/29 12:19:02;;;;;;;8.18;1.85;;;;;;;;;;5050966;28;20181;-64
2023/10/29 12:21:29;;;;;;;6.63;1.08;;;;;;;;;;5051109;28;20124;-64
2023/10/29 12:23:58;;;;;;;6.13;1.30;;;;;;;;;;5050555;28;20111;-64
2023/10/29 12:26:33;;;;;;;6.47;1.20;;;;;;;;;;5050628;28;20041;-64
2023/10/29 12:29:00;;;;;;;7.82;1.48;;;;;;;;;;5051020;28;20044;-64
2023/10/29 12:31:27;;;;;;;8.18;2.03;;;;;;;;;;5050371;28;20045;-64
2023/10/29 12:33:56;;;;;;;7.40;1.52;;;;;;;;;;5051045;28;20246;-64
2023/10/29 12:36:23;;;;;;;7.03;1.30;;;;;;;;;;5050910;28;20094;-64
2023/10/29 12:38:49;;;;;;;11.05;1.30;;;;;;;;;;5050201;28;20044;-64
2023/10/29 12:41:15;;;;;;;7.35;1.60;;;;;;;;;;5032748;28;20068;-64
2023/10/29 12:43:43;;;;;;;12.32;1.80;;;;;;;;;;5050217;28;20048;-64
2023/10/29 12:46:13;;;;;;;9.38;1.38;;;;;;;;;;5050242;28;20044;-64
2023/10/29 12:48:58;;;;;;;8.85;1.40;;;;;;;;;;5050384;28;20072;-64
2023/10/29 12:51:25;;;;;;;6.57;1.10;;;;;;;;;;5050539;28;20513;-64
2023/10/29 12:53:51;;;;;;;9.70;1.85;;;;;;;;;;5049899;28;20531;-64
2023/10/29 12:56:17;;;;;;;13.38;1.65;;;;;;;;;;5050215;28;20590;-64
2023/10/29 12:58:43;;;;;;;9.95;2.00;;;;;;;;;;5050104;28;20465;-64
2023/10/29 13:01:09;;;;;;;13.80;2.97;;;;;;;;;;5049927;28;20037;-64
2023/10/29 13:03:35;;;;;;;8.85;2.00;;;;;;;;;;5050079;28;20138;-64
2023/10/29 13:06:01;;;;;;;7.28;1.80;;;;;;;;;;5050217;28;20048;-64
2023/10/29 13:08:27;;;;;;;6.55;1.70;;;;;;;;;;5049707;28;20057;-64
2023/10/29 13:10:53;;;;;;;8.88;1.73;;;;;;;;;;5050066;28;20166;-64
2023/10/29 13:13:22;;;;;;;7.88;1.67;;;;;;;;;;5050166;28;20522;-64
2023/10/29 13:15:48;;;;;;;10.57;1.60;;;;;;;;;;5049121;28;20120;-64
2023/10/29 13:18:14;;;;;;;10.00;1.60;;;;;;;;;;5050105;28;20120;-64
2023/10/29 13:20:41;;;;;;;10.27;1.85;;;;;;;;;;5050039;28;20037;-64
2023/10/29 13:23:07;;;;;;;6.93;1.20;;;;;;;;;;5049392;28;20452;-64
2023/10/29 13:25:33;;;;;;;11.88;1.60;;;;;;;;;;5049546;28;20036;-64
2023/10/29 13:27:59;;;;;;;13.52;1.73;;;;;;;;;;5050054;28;20095;-64
2023/10/29 13:30:27;;;;;;;8.02;1.63;;;;;;;;;;5049348;28;20048;-64
2023/10/29 13:32:53;;;;;;;12.55;1.67;;;;;;;;;;5049648;28;20082;-64
2023/10/29 13:35:19;;;;;;;7.45;1.20;;;;;;;;;;5049629;28;20391;-64
2023/10/29 13:37:45;;;;;;;8.27;1.52;;;;;;;;;;5049393;28;20041;-64
2023/10/29 13:40:11;;;;;;;9.45;1.30;;;;;;;;;;5049418;28;20032;-64
2023/10/29 13:42:37;;;;;;;8.77;1.30;;;;;;;;;;5031755;28;20044;-64
2023/10/29 13:45:04;;;;;;;10.02;1.88;;;;;;;;;;5049183;28;20118;-64
2023/10/29 13:47:30;;;;;;;7.43;1.92;;;;;;;;;;5049321;28;20060;-64
2023/10/29 13:49:57;;;;;;;8.77;1.50;;;;;;;;;;5031672;28;20505;-64
2023/10/29 13:52:23;;;;;;;6.90;1.48;;;;;;;;;;5031240;28;20049;-64
2023/10/29 13:54:49;;;;;;;10.82;2.20;;;;;;;;;;5049076;28;20064;-64
2023/10/29 13:57:15;;;;;;;9.27;1.40;;;;;;;;;;5049687;28;20074;-64
2023/10/29 13:59:41;;;;;;;7.43;1.83;;;;;;;;;;5048937;28;20453;-64
2023/10/29 14:02:07;;;;;;;7.30;1.67;;;;;;;;;;5049482;28;20045;-64
2023/10/29 14:04:33;;;;;;;8.50;1.55;;;;;;;;;;5049338;28;20284;-64
2023/10/29 14:06:59;;;;;;;10.00;1.88;;;;;;;;;;5048963;28;20041;-64
2023/10/29 14:09:25;;;;;;;9.38;1.63;;;;;;;;;;5049514;28;20041;-64
2023/10/29 14:11:52;;;;;;;7.78;1.38;;;;;;;;;;5031118;28;20053;-64
2023/10/29 14:14:20;;;;;;;9.68;1.58;;;;;;;;;;5048899;28;20044;-64
2023/10/29 14:16:46;;;;;;;14.52;2.08;;;;;;;;;;5048745;28;20045;-64
2023/10/29 14:19:12;;;;;;;6.03;1.40;;;;;;;;;;5048933;28;20052;-64
2023/10/29 14:21:38;;;;;;;7.97;1.77;;;;;;;;;;5030820;28;20048;-64
2023/10/29 14:24:07;;;;;;;7.72;2.05;;;;;;;;;;5049068;28;20403;-64
2023/10/29 14:26:33;;;;;;;9.43;1.48;;;;;;;;;;5048895;28;20134;-64
2023/10/29 14:28:59;;;;;;;8.10;1.90;;;;;;;;;;5048632;28;20048;-64
2023/10/29 14:31:25;;;;;;;7.35;1.55;;;;;;;;;;5048949;28;20471;-64
2023/10/29 14:33:51;;;;;;;8.07;1.80;;;;;;;;;;5048805;28;20136;-64
2023/10/29 14:36:19;;;;;;;5.82;1.52;;;;;;;;;;5048235;28;20041;-64
2023/10/29 14:38:45;;;;;;;8.65;1.42;;;;;;;;;;5049378;28;20041;-64